Amavisti — V2CR5 — position and weather

sailwx.info

Track history (hours):
 
Tides and Currents Weather Stations Pressure Air Temp Water Temp Dewpoint Dewpoint Depression Visibility Wind Speed Wind Dir Waves Ship Positions

Amavisti

Last reported at 2015-May-24 14:33 UTC. Time now 2015-May-26 15:43 UTC.
Position N 50°24' W 000°41'.

Length 116 m; draft 7.2 m.

Type: Cargo ship. MMSI: 305086000.

Date/timePositionNaut miles runAvg speedWind from/ knotsBaromVisibWave heightAir tempDewpointWater temp
2015-May-24 14:33N 50°24' W 000°41'39 9.0
2015-May-24 10:12N 50°34' E 000°18'710.9
2015-May-24 09:33N 50°36' E 000°29'1111.4
2015-May-24 08:33N 50°42' E 000°44'1111.3
2015-May-24 07:33N 50°49' E 000°59'1110.6
2015-May-24 06:33N 50°56' E 001°11'10 9.7
2015-May-24 05:34N 51°02' E 001°23'8 8.5
2015-May-24 04:33N 51°07' E 001°33'8 8.0
2015-May-24 03:34N 51°13' E 001°43'9 9.0
2015-May-24 02:33N 51°20' E 001°51'1110.9
2015-May-24 01:34N 51°29' E 001°60'1212.1
2015-May-24 00:33N 51°39' E 002°12'1212.4
2015-May-23 23:34N 51°48' E 002°25'1211.9
2015-May-23 22:34N 51°57' E 002°38'1311.1
2015-May-23 21:24N 52°07' E 002°51'1910.1
2015-May-23 19:33N 52°21' E 003°11'4010.0
2015-May-23 15:34N 52°53' E 003°50'7810.7
2015-May-23 08:17N 54°01' E 004°55'910.7
2015-May-23 07:26N 54°09' E 005°03'1011.1
2015-May-23 06:33N 54°17' E 005°12'283 9.4
2015-May-22 00:33N 57°53' E 010°38'9 8.8
2015-May-21 23:33N 57°48' E 010°51'3 2.4
2015-May-21 22:14N 57°45' E 010°49'1 0.8
2015-May-21 21:15N 57°45' E 010°48'7 9.6
2015-May-21 20:33N 57°39' E 010°42'11 1.3
2015-May-21 12:32N 57°35' E 011°00'1010.6
2015-May-21 11:33N 57°31' E 011°18'1010.3
2015-May-21 10:34N 57°23' E 011°30'1110.7
2015-May-21 09:34N 57°13' E 011°36'1210.7
2015-May-21 08:28N 57°02' E 011°44'910.5
2015-May-21 07:34N 56°53' E 011°49'10 9.8
2015-May-21 06:34N 56°43' E 011°51'1111.2
2015-May-21 05:34N 56°33' E 011°41'118 9.8
2015-May-20 17:32N 54°37' E 011°15'1010.5
2015-May-20 16:34N 54°31' E 011°30'1111.1
2015-May-20 15:33N 54°26' E 011°47'1110.8
2015-May-20 14:33N 54°27' E 012°06'1010.3
2015-May-20 13:33N 54°36' E 012°14'7310.4
2015-May-20 06:32N 55°08' E 014°08'1110.8
2015-May-20 05:31N 55°16' E 014°20'1010.8
2015-May-20 04:33N 55°24' E 014°32'1010.5
2015-May-20 03:33N 55°30' E 014°47'1111.0
2015-May-20 02:33N 55°35' E 015°04'1210.8
2015-May-20 01:29N 55°40' E 015°23'1010.8
2015-May-20 00:33N 55°42' E 015°40'7710.4
2015-May-19 17:11N 56°00' E 017°53'710.3
2015-May-19 16:33N 56°02' E 018°05'  
2015-May-15 00:33N 55°48' E 017°19'6012.0
2015-May-14 19:33N 55°33' E 015°36'1212.2
2015-May-14 18:33N 55°29' E 015°16'1212.3
2015-May-14 17:33N 55°26' E 014°55'1111.4
2015-May-14 16:33N 55°21' E 014°37'1212.0
2015-May-14 15:33N 55°12' E 014°23'  
Track history (hours):
 
Tides and Currents Weather Stations Pressure Air Temp Water Temp Dewpoint Dewpoint Depression Visibility Wind Speed Wind Dir Waves Ship Positions

Amavisti

Last reported at 2015-May-24 14:33 UTC. Time now 2015-May-26 15:43 UTC.
Position N 50°24' W 000°41'.

Length 116 m; draft 7.2 m.

Type: Cargo ship. MMSI: 305086000.

Date/timePositionNaut miles runAvg speedWind from/ knotsBaromVisibWave heightAir tempDewpointWater temp
2015-May-24 14:33N 50°24' W 000°41'39 9.0
2015-May-24 10:12N 50°34' E 000°18'710.9
2015-May-24 09:33N 50°36' E 000°29'1111.4
2015-May-24 08:33N 50°42' E 000°44'1111.3
2015-May-24 07:33N 50°49' E 000°59'1110.6
2015-May-24 06:33N 50°56' E 001°11'10 9.7
2015-May-24 05:34N 51°02' E 001°23'8 8.5
2015-May-24 04:33N 51°07' E 001°33'8 8.0
2015-May-24 03:34N 51°13' E 001°43'9 9.0
2015-May-24 02:33N 51°20' E 001°51'1110.9
2015-May-24 01:34N 51°29' E 001°60'1212.1
2015-May-24 00:33N 51°39' E 002°12'1212.4
2015-May-23 23:34N 51°48' E 002°25'1211.9
2015-May-23 22:34N 51°57' E 002°38'1311.1
2015-May-23 21:24N 52°07' E 002°51'1910.1
2015-May-23 19:33N 52°21' E 003°11'4010.0
2015-May-23 15:34N 52°53' E 003°50'7810.7
2015-May-23 08:17N 54°01' E 004°55'910.7
2015-May-23 07:26N 54°09' E 005°03'1011.1
2015-May-23 06:33N 54°17' E 005°12'283 9.4
2015-May-22 00:33N 57°53' E 010°38'9 8.8
2015-May-21 23:33N 57°48' E 010°51'3 2.4
2015-May-21 22:14N 57°45' E 010°49'1 0.8
2015-May-21 21:15N 57°45' E 010°48'7 9.6
2015-May-21 20:33N 57°39' E 010°42'11 1.3
2015-May-21 12:32N 57°35' E 011°00'1010.6
2015-May-21 11:33N 57°31' E 011°18'1010.3
2015-May-21 10:34N 57°23' E 011°30'1110.7
2015-May-21 09:34N 57°13' E 011°36'1210.7
2015-May-21 08:28N 57°02' E 011°44'910.5
2015-May-21 07:34N 56°53' E 011°49'10 9.8
2015-May-21 06:34N 56°43' E 011°51'1111.2
2015-May-21 05:34N 56°33' E 011°41'118 9.8
2015-May-20 17:32N 54°37' E 011°15'1010.5
2015-May-20 16:34N 54°31' E 011°30'1111.1
2015-May-20 15:33N 54°26' E 011°47'1110.8
2015-May-20 14:33N 54°27' E 012°06'1010.3
2015-May-20 13:33N 54°36' E 012°14'7310.4
2015-May-20 06:32N 55°08' E 014°08'1110.8
2015-May-20 05:31N 55°16' E 014°20'1010.8
2015-May-20 04:33N 55°24' E 014°32'1010.5
2015-May-20 03:33N 55°30' E 014°47'1111.0
2015-May-20 02:33N 55°35' E 015°04'1210.8
2015-May-20 01:29N 55°40' E 015°23'1010.8
2015-May-20 00:33N 55°42' E 015°40'7710.4
2015-May-19 17:11N 56°00' E 017°53'710.3
2015-May-19 16:33N 56°02' E 018°05'  
2015-May-15 00:33N 55°48' E 017°19'6012.0
2015-May-14 19:33N 55°33' E 015°36'1212.2
2015-May-14 18:33N 55°29' E 015°16'1212.3
2015-May-14 17:33N 55°26' E 014°55'1111.4
2015-May-14 16:33N 55°21' E 014°37'1212.0
2015-May-14 15:33N 55°12' E 014°23'  

Dump ship's entire track history